sensor_id;sensor_type;location;lat;lon;timestamp;P1;durP1;ratioP1;P2;durP2;ratioP2
59922;SDS011;45778;51.142;3.732;2023-05-23T00:01:36;42.10;;;22.35;;
59922;SDS011;45778;51.142;3.732;2023-05-23T00:04:02;43.00;;;23.90;;
59922;SDS011;45778;51.142;3.732;2023-05-23T00:06:28;49.15;;;22.80;;
59922;SDS011;45778;51.142;3.732;2023-05-23T00:08:54;41.80;;;23.58;;
59922;SDS011;45778;51.142;3.732;2023-05-23T00:11:21;35.17;;;20.17;;
59922;SDS011;45778;51.142;3.732;2023-05-23T00:13:51;42.17;;;20.88;;
59922;SDS011;45778;51.142;3.732;2023-05-23T00:16:17;34.72;;;20.15;;
59922;SDS011;45778;51.142;3.732;2023-05-23T00:18:43;37.28;;;20.52;;
59922;SDS011;45778;51.142;3.732;2023-05-23T00:21:09;39.33;;;23.90;;
59922;SDS011;45778;51.142;3.732;2023-05-23T00:23:38;43.10;;;25.25;;
59922;SDS011;45778;51.142;3.732;2023-05-23T00:26:09;40.03;;;22.80;;
59922;SDS011;45778;51.142;3.732;2023-05-23T00:28:38;37.30;;;22.40;;
59922;SDS011;45778;51.142;3.732;2023-05-23T00:31:04;35.03;;;20.85;;
59922;SDS011;45778;51.142;3.732;2023-05-23T00:33:30;36.13;;;19.55;;
59922;SDS011;45778;51.142;3.732;2023-05-23T00:35:57;38.63;;;18.98;;
59922;SDS011;45778;51.142;3.732;2023-05-23T00:38:24;39.35;;;15.75;;
59922;SDS011;45778;51.142;3.732;2023-05-23T00:40:50;30.80;;;15.65;;
59922;SDS011;45778;51.142;3.732;2023-05-23T00:43:16;38.53;;;16.67;;
59922;SDS011;45778;51.142;3.732;2023-05-23T00:45:43;36.63;;;17.63;;
59922;SDS011;45778;51.142;3.732;2023-05-23T00:48:09;35.65;;;17.48;;
59922;SDS011;45778;51.142;3.732;2023-05-23T00:50:35;40.88;;;19.08;;
59922;SDS011;45778;51.142;3.732;2023-05-23T00:53:01;40.75;;;19.05;;
59922;SDS011;45778;51.142;3.732;2023-05-23T00:55:27;42.65;;;20.50;;
59922;SDS011;45778;51.142;3.732;2023-05-23T00:57:54;41.33;;;20.13;;
59922;SDS011;45778;51.142;3.732;2023-05-23T01:00:22;46.22;;;20.10;;
59922;SDS011;45778;51.142;3.732;2023-05-23T01:02:49;47.72;;;20.25;;
59922;SDS011;45778;51.142;3.732;2023-05-23T01:05:16;40.13;;;18.73;;
59922;SDS011;45778;51.142;3.732;2023-05-23T01:07:43;40.25;;;18.33;;
59922;SDS011;45778;51.142;3.732;2023-05-23T01:10:09;47.50;;;20.25;;
59922;SDS011;45778;51.142;3.732;2023-05-23T01:15:18;43.63;;;18.75;;
59922;SDS011;45778;51.142;3.732;2023-05-23T01:20:38;32.47;;;14.82;;
59922;SDS011;45778;51.142;3.732;2023-05-23T01:23:12;33.38;;;17.40;;
59922;SDS011;45778;51.142;3.732;2023-05-23T01:29:01;37.95;;;17.02;;
59922;SDS011;45778;51.142;3.732;2023-05-23T01:31:34;29.58;;;14.73;;
59922;SDS011;45778;51.142;3.732;2023-05-23T01:34:03;34.92;;;16.67;;
59922;SDS011;45778;51.142;3.732;2023-05-23T01:36:32;35.55;;;16.98;;
59922;SDS011;45778;51.142;3.732;2023-05-23T01:38:59;32.08;;;16.58;;
59922;SDS011;45778;51.142;3.732;2023-05-23T01:41:25;32.40;;;15.27;;
59922;SDS011;45778;51.142;3.732;2023-05-23T01:43:52;33.63;;;16.00;;
59922;SDS011;45778;51.142;3.732;2023-05-23T01:46:19;32.58;;;18.10;;
59922;SDS011;45778;51.142;3.732;2023-05-23T01:48:46;35.63;;;18.08;;
59922;SDS011;45778;51.142;3.732;2023-05-23T01:51:13;40.00;;;19.55;;
59922;SDS011;45778;51.142;3.732;2023-05-23T01:53:39;36.30;;;19.27;;
59922;SDS011;45778;51.142;3.732;2023-05-23T01:56:05;41.10;;;20.50;;
59922;SDS011;45778;51.142;3.732;2023-05-23T01:58:32;40.38;;;21.88;;
59922;SDS011;45778;51.142;3.732;2023-05-23T02:00:58;39.67;;;19.63;;
59922;SDS011;45778;51.142;3.732;2023-05-23T02:03:23;38.15;;;21.33;;
59922;SDS011;45778;51.142;3.732;2023-05-23T02:05:49;38.80;;;19.40;;
59922;SDS011;45778;51.142;3.732;2023-05-23T02:08:15;43.65;;;20.50;;
59922;SDS011;45778;51.142;3.732;2023-05-23T02:10:41;36.83;;;20.02;;
59922;SDS011;45778;51.142;3.732;2023-05-23T02:13:06;34.97;;;17.90;;
59922;SDS011;45778;51.142;3.732;2023-05-23T02:15:32;35.03;;;17.73;;
59922;SDS011;45778;51.142;3.732;2023-05-23T02:17:58;37.53;;;18.17;;
59922;SDS011;45778;51.142;3.732;2023-05-23T02:20:23;33.20;;;17.75;;
59922;SDS011;45778;51.142;3.732;2023-05-23T02:22:50;33.47;;;18.83;;
59922;SDS011;45778;51.142;3.732;2023-05-23T02:25:15;29.55;;;13.65;;
59922;SDS011;45778;51.142;3.732;2023-05-23T02:27:41;27.52;;;13.75;;
59922;SDS011;45778;51.142;3.732;2023-05-23T02:30:07;25.92;;;13.40;;
59922;SDS011;45778;51.142;3.732;2023-05-23T02:32:33;31.17;;;12.80;;
59922;SDS011;45778;51.142;3.732;2023-05-23T02:34:59;26.48;;;11.68;;
59922;SDS011;45778;51.142;3.732;2023-05-23T02:37:24;28.92;;;11.00;;
59922;SDS011;45778;51.142;3.732;2023-05-23T02:39:50;28.85;;;11.65;;
59922;SDS011;45778;51.142;3.732;2023-05-23T02:42:15;27.40;;;13.90;;
59922;SDS011;45778;51.142;3.732;2023-05-23T02:44:42;27.27;;;11.43;;
59922;SDS011;45778;51.142;3.732;2023-05-23T02:47:07;30.63;;;12.60;;
59922;SDS011;45778;51.142;3.732;2023-05-23T02:49:33;25.52;;;11.35;;
59922;SDS011;45778;51.142;3.732;2023-05-23T02:51:58;27.13;;;12.75;;
59922;SDS011;45778;51.142;3.732;2023-05-23T02:54:24;32.45;;;13.15;;
59922;SDS011;45778;51.142;3.732;2023-05-23T02:56:50;30.13;;;12.32;;
59922;SDS011;45778;51.142;3.732;2023-05-23T02:59:17;33.50;;;13.27;;
59922;SDS011;45778;51.142;3.732;2023-05-23T03:01:43;23.20;;;9.93;;
59922;SDS011;45778;51.142;3.732;2023-05-23T03:04:08;25.58;;;11.30;;
59922;SDS011;45778;51.142;3.732;2023-05-23T03:06:34;25.70;;;11.52;;
59922;SDS011;45778;51.142;3.732;2023-05-23T03:09:00;28.77;;;11.57;;
59922;SDS011;45778;51.142;3.732;2023-05-23T03:11:26;27.42;;;13.05;;
59922;SDS011;45778;51.142;3.732;2023-05-23T03:13:53;28.17;;;12.70;;
59922;SDS011;45778;51.142;3.732;2023-05-23T03:16:20;28.38;;;14.20;;
59922;SDS011;45778;51.142;3.732;2023-05-23T03:18:47;29.30;;;12.85;;
59922;SDS011;45778;51.142;3.732;2023-05-23T03:21:13;24.40;;;12.13;;
59922;SDS011;45778;51.142;3.732;2023-05-23T03:23:39;22.85;;;11.25;;
59922;SDS011;45778;51.142;3.732;2023-05-23T03:26:04;29.85;;;12.52;;
59922;SDS011;45778;51.142;3.732;2023-05-23T03:28:30;25.38;;;12.02;;
59922;SDS011;45778;51.142;3.732;2023-05-23T03:30:57;26.58;;;13.38;;
59922;SDS011;45778;51.142;3.732;2023-05-23T03:33:22;30.08;;;14.88;;
59922;SDS011;45778;51.142;3.732;2023-05-23T03:35:48;24.52;;;13.80;;
59922;SDS011;45778;51.142;3.732;2023-05-23T03:38:15;26.98;;;14.32;;
59922;SDS011;45778;51.142;3.732;2023-05-23T03:40:41;26.70;;;15.40;;
59922;SDS011;45778;51.142;3.732;2023-05-23T03:43:06;27.10;;;14.57;;
59922;SDS011;45778;51.142;3.732;2023-05-23T03:45:32;25.70;;;11.90;;
59922;SDS011;45778;51.142;3.732;2023-05-23T03:47:58;22.02;;;9.65;;
59922;SDS011;45778;51.142;3.732;2023-05-23T03:50:24;27.70;;;11.13;;
59922;SDS011;45778;51.142;3.732;2023-05-23T03:52:50;36.45;;;12.35;;
59922;SDS011;45778;51.142;3.732;2023-05-23T03:55:16;28.98;;;10.27;;
59922;SDS011;45778;51.142;3.732;2023-05-23T03:57:46;31.95;;;11.82;;
59922;SDS011;45778;51.142;3.732;2023-05-23T04:00:12;23.98;;;10.20;;
59922;SDS011;45778;51.142;3.732;2023-05-23T04:02:39;25.85;;;10.45;;
59922;SDS011;45778;51.142;3.732;2023-05-23T04:05:05;29.10;;;10.30;;
59922;SDS011;45778;51.142;3.732;2023-05-23T04:07:31;35.85;;;11.30;;
59922;SDS011;45778;51.142;3.732;2023-05-23T04:10:00;28.80;;;10.98;;
59922;SDS011;45778;51.142;3.732;2023-05-23T04:12:27;27.33;;;10.40;;
59922;SDS011;45778;51.142;3.732;2023-05-23T04:14:54;31.85;;;11.45;;
59922;SDS011;45778;51.142;3.732;2023-05-23T04:17:20;31.38;;;11.05;;
59922;SDS011;45778;51.142;3.732;2023-05-23T04:19:46;26.20;;;10.73;;
59922;SDS011;45778;51.142;3.732;2023-05-23T04:22:12;28.83;;;11.32;;
59922;SDS011;45778;51.142;3.732;2023-05-23T04:24:38;26.73;;;11.60;;
59922;SDS011;45778;51.142;3.732;2023-05-23T04:27:03;28.65;;;11.60;;
59922;SDS011;45778;51.142;3.732;2023-05-23T04:29:29;27.13;;;10.52;;
59922;SDS011;45778;51.142;3.732;2023-05-23T04:31:58;25.30;;;10.27;;
59922;SDS011;45778;51.142;3.732;2023-05-23T04:34:24;23.92;;;8.98;;
59922;SDS011;45778;51.142;3.732;2023-05-23T04:36:51;22.50;;;8.23;;
59922;SDS011;45778;51.142;3.732;2023-05-23T04:39:18;32.85;;;8.85;;
59922;SDS011;45778;51.142;3.732;2023-05-23T04:41:44;28.95;;;9.80;;
59922;SDS011;45778;51.142;3.732;2023-05-23T04:44:10;22.88;;;8.20;;
59922;SDS011;45778;51.142;3.732;2023-05-23T04:46:36;19.90;;;9.15;;
59922;SDS011;45778;51.142;3.732;2023-05-23T04:49:06;26.27;;;9.57;;
59922;SDS011;45778;51.142;3.732;2023-05-23T04:51:32;29.42;;;9.65;;
59922;SDS011;45778;51.142;3.732;2023-05-23T04:53:59;21.77;;;9.75;;
59922;SDS011;45778;51.142;3.732;2023-05-23T04:56:25;26.23;;;10.50;;
59922;SDS011;45778;51.142;3.732;2023-05-23T04:58:52;28.42;;;10.07;;
59922;SDS011;45778;51.142;3.732;2023-05-23T05:01:18;25.25;;;11.15;;
59922;SDS011;45778;51.142;3.732;2023-05-23T05:03:43;21.73;;;10.95;;
59922;SDS011;45778;51.142;3.732;2023-05-23T05:06:09;30.20;;;10.52;;
59922;SDS011;45778;51.142;3.732;2023-05-23T05:08:35;24.58;;;10.48;;
59922;SDS011;45778;51.142;3.732;2023-05-23T05:11:00;24.10;;;11.30;;
59922;SDS011;45778;51.142;3.732;2023-05-23T05:13:26;26.67;;;8.68;;
59922;SDS011;45778;51.142;3.732;2023-05-23T05:15:52;13.98;;;6.97;;
59922;SDS011;45778;51.142;3.732;2023-05-23T05:18:18;11.13;;;6.07;;
59922;SDS011;45778;51.142;3.732;2023-05-23T05:20:43;18.52;;;6.80;;
59922;SDS011;45778;51.142;3.732;2023-05-23T05:23:09;15.45;;;7.68;;
59922;SDS011;45778;51.142;3.732;2023-05-23T05:25:35;15.60;;;7.07;;
59922;SDS011;45778;51.142;3.732;2023-05-23T05:28:02;16.25;;;7.18;;
59922;SDS011;45778;51.142;3.732;2023-05-23T05:30:30;25.95;;;7.18;;
59922;SDS011;45778;51.142;3.732;2023-05-23T05:33:02;22.15;;;8.10;;
59922;SDS011;45778;51.142;3.732;2023-05-23T05:35:32;18.13;;;6.78;;
59922;SDS011;45778;51.142;3.732;2023-05-23T05:37:59;17.13;;;7.00;;
59922;SDS011;45778;51.142;3.732;2023-05-23T05:40:26;18.63;;;7.47;;
59922;SDS011;45778;51.142;3.732;2023-05-23T05:42:52;17.15;;;6.82;;
59922;SDS011;45778;51.142;3.732;2023-05-23T05:45:17;16.80;;;7.25;;
59922;SDS011;45778;51.142;3.732;2023-05-23T05:47:44;15.25;;;6.63;;
59922;SDS011;45778;51.142;3.732;2023-05-23T05:50:10;18.70;;;6.05;;
59922;SDS011;45778;51.142;3.732;2023-05-23T05:52:36;13.02;;;6.95;;
59922;SDS011;45778;51.142;3.732;2023-05-23T05:55:05;15.30;;;6.45;;
59922;SDS011;45778;51.142;3.732;2023-05-23T05:57:38;20.40;;;7.20;;
59922;SDS011;45778;51.142;3.732;2023-05-23T06:00:08;23.58;;;8.10;;
59922;SDS011;45778;51.142;3.732;2023-05-23T06:02:43;22.92;;;8.05;;
59922;SDS011;45778;51.142;3.732;2023-05-23T06:05:15;16.65;;;6.18;;
59922;SDS011;45778;51.142;3.732;2023-05-23T06:07:41;14.85;;;6.50;;
59922;SDS011;45778;51.142;3.732;2023-05-23T06:10:08;19.80;;;5.50;;
59922;SDS011;45778;51.142;3.732;2023-05-23T06:12:36;15.45;;;6.43;;
59922;SDS011;45778;51.142;3.732;2023-05-23T06:15:02;14.82;;;8.07;;
59922;SDS011;45778;51.142;3.732;2023-05-23T06:17:28;15.93;;;6.60;;
59922;SDS011;45778;51.142;3.732;2023-05-23T06:19:54;18.60;;;6.43;;
59922;SDS011;45778;51.142;3.732;2023-05-23T06:22:20;16.45;;;6.47;;
59922;SDS011;45778;51.142;3.732;2023-05-23T06:24:45;16.08;;;7.03;;
59922;SDS011;45778;51.142;3.732;2023-05-23T06:27:11;16.13;;;6.93;;
59922;SDS011;45778;51.142;3.732;2023-05-23T06:29:37;19.17;;;7.40;;
59922;SDS011;45778;51.142;3.732;2023-05-23T06:32:03;19.77;;;7.38;;
59922;SDS011;45778;51.142;3.732;2023-05-23T06:34:29;18.92;;;6.35;;
59922;SDS011;45778;51.142;3.732;2023-05-23T06:36:55;11.52;;;6.50;;
59922;SDS011;45778;51.142;3.732;2023-05-23T06:39:21;15.48;;;6.72;;
59922;SDS011;45778;51.142;3.732;2023-05-23T06:41:46;13.60;;;7.85;;
59922;SDS011;45778;51.142;3.732;2023-05-23T06:44:12;18.83;;;7.90;;
59922;SDS011;45778;51.142;3.732;2023-05-23T06:46:38;20.92;;;7.25;;
59922;SDS011;45778;51.142;3.732;2023-05-23T06:49:04;13.52;;;7.50;;
59922;SDS011;45778;51.142;3.732;2023-05-23T06:51:30;18.63;;;7.05;;
59922;SDS011;45778;51.142;3.732;2023-05-23T06:53:55;12.60;;;6.20;;
59922;SDS011;45778;51.142;3.732;2023-05-23T06:56:24;17.25;;;7.35;;
59922;SDS011;45778;51.142;3.732;2023-05-23T06:58:51;16.85;;;7.00;;
59922;SDS011;45778;51.142;3.732;2023-05-23T07:01:16;16.15;;;7.55;;
59922;SDS011;45778;51.142;3.732;2023-05-23T07:03:42;17.45;;;6.65;;
59922;SDS011;45778;51.142;3.732;2023-05-23T07:06:09;15.43;;;5.85;;
59922;SDS011;45778;51.142;3.732;2023-05-23T07:08:35;13.93;;;5.35;;
59922;SDS011;45778;51.142;3.732;2023-05-23T07:11:01;15.18;;;6.35;;
59922;SDS011;45778;51.142;3.732;2023-05-23T07:13:27;13.05;;;5.03;;
59922;SDS011;45778;51.142;3.732;2023-05-23T07:15:53;15.70;;;5.57;;
59922;SDS011;45778;51.142;3.732;2023-05-23T07:18:19;12.20;;;4.78;;
59922;SDS011;45778;51.142;3.732;2023-05-23T07:20:44;16.27;;;5.07;;
59922;SDS011;45778;51.142;3.732;2023-05-23T07:23:10;12.50;;;5.32;;
59922;SDS011;45778;51.142;3.732;2023-05-23T07:25:36;15.60;;;4.53;;
59922;SDS011;45778;51.142;3.732;2023-05-23T07:28:04;13.65;;;5.05;;
59922;SDS011;45778;51.142;3.732;2023-05-23T07:30:30;13.82;;;4.10;;
59922;SDS011;45778;51.142;3.732;2023-05-23T07:32:55;14.60;;;5.32;;
59922;SDS011;45778;51.142;3.732;2023-05-23T07:35:21;12.70;;;5.15;;
59922;SDS011;45778;51.142;3.732;2023-05-23T07:37:50;13.10;;;4.10;;
59922;SDS011;45778;51.142;3.732;2023-05-23T07:40:20;10.73;;;4.63;;
59922;SDS011;45778;51.142;3.732;2023-05-23T07:42:46;9.73;;;3.92;;
59922;SDS011;45778;51.142;3.732;2023-05-23T07:45:12;15.95;;;4.05;;
59922;SDS011;45778;51.142;3.732;2023-05-23T07:47:37;8.63;;;3.85;;
59922;SDS011;45778;51.142;3.732;2023-05-23T07:50:03;8.32;;;2.90;;
59922;SDS011;45778;51.142;3.732;2023-05-23T07:52:30;6.72;;;3.05;;
59922;SDS011;45778;51.142;3.732;2023-05-23T07:54:56;6.65;;;2.20;;
59922;SDS011;45778;51.142;3.732;2023-05-23T07:57:22;11.10;;;2.95;;
59922;SDS011;45778;51.142;3.732;2023-05-23T07:59:48;9.50;;;2.25;;
59922;SDS011;45778;51.142;3.732;2023-05-23T08:02:15;5.20;;;1.70;;
59922;SDS011;45778;51.142;3.732;2023-05-23T08:04:41;7.45;;;2.58;;
59922;SDS011;45778;51.142;3.732;2023-05-23T08:07:07;6.13;;;2.15;;
59922;SDS011;45778;51.142;3.732;2023-05-23T08:09:33;8.73;;;2.85;;
59922;SDS011;45778;51.142;3.732;2023-05-23T08:12:00;7.55;;;1.90;;
59922;SDS011;45778;51.142;3.732;2023-05-23T08:14:25;4.95;;;2.15;;
59922;SDS011;45778;51.142;3.732;2023-05-23T08:16:51;5.65;;;1.95;;
59922;SDS011;45778;51.142;3.732;2023-05-23T08:19:17;11.02;;;3.55;;
59922;SDS011;45778;51.142;3.732;2023-05-23T08:21:43;6.10;;;2.00;;
59922;SDS011;45778;51.142;3.732;2023-05-23T08:24:09;6.13;;;2.05;;
59922;SDS011;45778;51.142;3.732;2023-05-23T08:26:37;5.03;;;2.17;;
59922;SDS011;45778;51.142;3.732;2023-05-23T08:29:03;7.15;;;1.92;;
59922;SDS011;45778;51.142;3.732;2023-05-23T08:31:29;6.82;;;1.92;;
59922;SDS011;45778;51.142;3.732;2023-05-23T08:33:55;6.35;;;2.58;;
59922;SDS011;45778;51.142;3.732;2023-05-23T08:36:21;5.78;;;1.63;;
59922;SDS011;45778;51.142;3.732;2023-05-23T08:38:48;6.70;;;2.13;;
59922;SDS011;45778;51.142;3.732;2023-05-23T08:41:17;6.97;;;1.70;;
59922;SDS011;45778;51.142;3.732;2023-05-23T08:43:44;8.68;;;1.50;;
59922;SDS011;45778;51.142;3.732;2023-05-23T08:46:10;4.78;;;1.30;;
59922;SDS011;45778;51.142;3.732;2023-05-23T08:48:37;10.25;;;1.75;;
59922;SDS011;45778;51.142;3.732;2023-05-23T08:51:03;7.78;;;1.92;;
59922;SDS011;45778;51.142;3.732;2023-05-23T08:53:30;6.88;;;1.58;;
59922;SDS011;45778;51.142;3.732;2023-05-23T08:55:56;8.02;;;2.08;;
59922;SDS011;45778;51.142;3.732;2023-05-23T08:58:29;6.80;;;1.80;;
59922;SDS011;45778;51.142;3.732;2023-05-23T09:00:56;11.88;;;2.25;;
59922;SDS011;45778;51.142;3.732;2023-05-23T09:03:25;14.70;;;2.30;;
59922;SDS011;45778;51.142;3.732;2023-05-23T09:05:51;10.05;;;1.98;;
59922;SDS011;45778;51.142;3.732;2023-05-23T09:08:18;12.13;;;1.88;;
59922;SDS011;45778;51.142;3.732;2023-05-23T09:10:44;8.20;;;1.98;;
59922;SDS011;45778;51.142;3.732;2023-05-23T09:13:11;15.57;;;2.20;;
59922;SDS011;45778;51.142;3.732;2023-05-23T09:15:36;13.40;;;2.67;;
59922;SDS011;45778;51.142;3.732;2023-05-23T09:18:02;12.40;;;2.80;;
59922;SDS011;45778;51.142;3.732;2023-05-23T09:20:28;12.50;;;2.40;;
59922;SDS011;45778;51.142;3.732;2023-05-23T09:22:54;8.00;;;2.20;;
59922;SDS011;45778;51.142;3.732;2023-05-23T09:25:20;10.25;;;2.22;;
59922;SDS011;45778;51.142;3.732;2023-05-23T09:27:46;15.38;;;2.55;;
59922;SDS011;45778;51.142;3.732;2023-05-23T09:30:12;8.57;;;2.00;;
59922;SDS011;45778;51.142;3.732;2023-05-23T09:32:38;15.85;;;2.78;;
59922;SDS011;45778;51.142;3.732;2023-05-23T09:35:05;12.95;;;3.13;;
59922;SDS011;45778;51.142;3.732;2023-05-23T09:37:33;7.32;;;2.30;;
59922;SDS011;45778;51.142;3.732;2023-05-23T09:40:05;18.17;;;3.65;;
59922;SDS011;45778;51.142;3.732;2023-05-23T09:42:34;9.10;;;2.45;;
59922;SDS011;45778;51.142;3.732;2023-05-23T09:45:05;8.70;;;2.70;;
59922;SDS011;45778;51.142;3.732;2023-05-23T09:47:31;8.73;;;2.63;;
59922;SDS011;45778;51.142;3.732;2023-05-23T09:49:57;9.60;;;2.10;;
59922;SDS011;45778;51.142;3.732;2023-05-23T09:52:23;11.55;;;2.45;;
59922;SDS011;45778;51.142;3.732;2023-05-23T09:54:48;14.38;;;3.38;;
59922;SDS011;45778;51.142;3.732;2023-05-23T09:57:15;11.13;;;3.42;;
59922;SDS011;45778;51.142;3.732;2023-05-23T09:59:42;16.65;;;2.50;;
59922;SDS011;45778;51.142;3.732;2023-05-23T10:02:16;11.57;;;2.72;;
59922;SDS011;45778;51.142;3.732;2023-05-23T10:04:58;11.37;;;2.00;;
59922;SDS011;45778;51.142;3.732;2023-05-23T10:07:24;9.15;;;2.35;;
59922;SDS011;45778;51.142;3.732;2023-05-23T10:09:53;10.85;;;2.58;;
59922;SDS011;45778;51.142;3.732;2023-05-23T10:14:56;12.65;;;4.18;;
59922;SDS011;45778;51.142;3.732;2023-05-23T10:20:23;15.00;;;3.47;;
59922;SDS011;45778;51.142;3.732;2023-05-23T10:22:50;9.38;;;1.52;;
59922;SDS011;45778;51.142;3.732;2023-05-23T10:25:16;17.55;;;2.85;;
59922;SDS011;45778;51.142;3.732;2023-05-23T10:27:42;14.52;;;3.70;;
59922;SDS011;45778;51.142;3.732;2023-05-23T10:30:08;10.93;;;2.75;;
59922;SDS011;45778;51.142;3.732;2023-05-23T10:32:34;13.02;;;2.97;;
59922;SDS011;45778;51.142;3.732;2023-05-23T10:38:19;15.35;;;2.97;;
59922;SDS011;45778;51.142;3.732;2023-05-23T10:40:40;10.27;;;2.25;;
59922;SDS011;45778;51.142;3.732;2023-05-23T10:46:07;14.43;;;2.85;;
59922;SDS011;45778;51.142;3.732;2023-05-23T10:48:33;8.35;;;2.08;;
59922;SDS011;45778;51.142;3.732;2023-05-23T10:51:05;12.05;;;2.53;;
59922;SDS011;45778;51.142;3.732;2023-05-23T10:53:34;12.07;;;2.65;;
59922;SDS011;45778;51.142;3.732;2023-05-23T10:56:01;9.50;;;2.30;;
59922;SDS011;45778;51.142;3.732;2023-05-23T10:58:32;9.68;;;2.83;;
59922;SDS011;45778;51.142;3.732;2023-05-23T11:01:01;9.75;;;2.78;;
59922;SDS011;45778;51.142;3.732;2023-05-23T11:05:59;12.18;;;2.67;;
59922;SDS011;45778;51.142;3.732;2023-05-23T11:08:26;12.23;;;2.88;;
59922;SDS011;45778;51.142;3.732;2023-05-23T11:11:01;20.30;;;2.85;;
59922;SDS011;45778;51.142;3.732;2023-05-23T11:16:30;8.57;;;2.35;;
59922;SDS011;45778;51.142;3.732;2023-05-23T11:19:53;17.35;;;3.00;;
59922;SDS011;45778;51.142;3.732;2023-05-23T11:21:49;7.90;;;2.33;;
59922;SDS011;45778;51.142;3.732;2023-05-23T11:24:18;14.45;;;2.53;;
59922;SDS011;45778;51.142;3.732;2023-05-23T11:26:54;10.88;;;2.15;;
59922;SDS011;45778;51.142;3.732;2023-05-23T11:29:25;9.82;;;2.45;;
59922;SDS011;45778;51.142;3.732;2023-05-23T11:31:52;11.48;;;2.30;;
59922;SDS011;45778;51.142;3.732;2023-05-23T11:34:18;7.93;;;2.55;;
59922;SDS011;45778;51.142;3.732;2023-05-23T11:36:45;15.18;;;3.13;;
59922;SDS011;45778;51.142;3.732;2023-05-23T11:39:12;10.20;;;2.20;;
59922;SDS011;45778;51.142;3.732;2023-05-23T11:41:38;10.23;;;2.42;;
59922;SDS011;45778;51.142;3.732;2023-05-23T11:44:11;12.50;;;2.67;;
59922;SDS011;45778;51.142;3.732;2023-05-23T11:46:38;11.65;;;2.20;;
59922;SDS011;45778;51.142;3.732;2023-05-23T11:49:10;10.32;;;2.30;;
59922;SDS011;45778;51.142;3.732;2023-05-23T11:51:36;14.30;;;2.28;;
59922;SDS011;45778;51.142;3.732;2023-05-23T11:54:02;13.73;;;2.70;;
59922;SDS011;45778;51.142;3.732;2023-05-23T11:56:28;9.35;;;1.63;;
59922;SDS011;45778;51.142;3.732;2023-05-23T11:58:53;11.63;;;2.55;;
59922;SDS011;45778;51.142;3.732;2023-05-23T12:01:21;13.45;;;2.20;;
59922;SDS011;45778;51.142;3.732;2023-05-23T12:03:55;16.02;;;2.83;;
59922;SDS011;45778;51.142;3.732;2023-05-23T12:06:21;13.75;;;2.60;;
59922;SDS011;45778;51.142;3.732;2023-05-23T12:08:48;6.38;;;2.28;;
59922;SDS011;45778;51.142;3.732;2023-05-23T12:11:17;8.50;;;2.10;;
59922;SDS011;45778;51.142;3.732;2023-05-23T12:13:43;10.05;;;2.00;;
59922;SDS011;45778;51.142;3.732;2023-05-23T12:16:08;14.23;;;2.45;;
59922;SDS011;45778;51.142;3.732;2023-05-23T12:18:37;13.38;;;2.60;;
59922;SDS011;45778;51.142;3.732;2023-05-23T12:21:03;10.98;;;2.05;;
59922;SDS011;45778;51.142;3.732;2023-05-23T12:23:32;7.88;;;2.15;;
59922;SDS011;45778;51.142;3.732;2023-05-23T12:25:58;10.88;;;2.30;;
59922;SDS011;45778;51.142;3.732;2023-05-23T12:28:36;9.63;;;2.85;;
59922;SDS011;45778;51.142;3.732;2023-05-23T12:31:10;6.90;;;2.03;;
59922;SDS011;45778;51.142;3.732;2023-05-23T12:33:40;10.63;;;2.13;;
59922;SDS011;45778;51.142;3.732;2023-05-23T12:36:08;10.23;;;3.00;;
59922;SDS011;45778;51.142;3.732;2023-05-23T12:38:35;7.63;;;1.90;;
59922;SDS011;45778;51.142;3.732;2023-05-23T12:41:08;11.02;;;2.30;;
59922;SDS011;45778;51.142;3.732;2023-05-23T12:43:40;8.45;;;2.05;;
59922;SDS011;45778;51.142;3.732;2023-05-23T12:46:14;6.05;;;2.05;;
59922;SDS011;45778;51.142;3.732;2023-05-23T12:48:40;6.32;;;1.65;;
59922;SDS011;45778;51.142;3.732;2023-05-23T12:51:05;8.27;;;2.10;;
59922;SDS011;45778;51.142;3.732;2023-05-23T12:53:31;10.52;;;2.10;;
59922;SDS011;45778;51.142;3.732;2023-05-23T12:55:57;13.70;;;3.78;;
59922;SDS011;45778;51.142;3.732;2023-05-23T12:58:22;7.57;;;2.00;;
59922;SDS011;45778;51.142;3.732;2023-05-23T13:00:49;10.98;;;1.77;;
59922;SDS011;45778;51.142;3.732;2023-05-23T13:03:14;9.20;;;2.03;;
59922;SDS011;45778;51.142;3.732;2023-05-23T13:05:41;9.18;;;1.95;;
59922;SDS011;45778;51.142;3.732;2023-05-23T13:08:06;9.13;;;2.78;;
59922;SDS011;45778;51.142;3.732;2023-05-23T13:10:32;18.98;;;2.40;;
59922;SDS011;45778;51.142;3.732;2023-05-23T13:12:58;10.18;;;2.35;;
59922;SDS011;45778;51.142;3.732;2023-05-23T13:15:24;7.55;;;1.90;;
59922;SDS011;45778;51.142;3.732;2023-05-23T13:17:50;7.05;;;1.83;;
59922;SDS011;45778;51.142;3.732;2023-05-23T13:20:16;8.98;;;1.80;;
59922;SDS011;45778;51.142;3.732;2023-05-23T13:22:42;6.35;;;1.40;;
59922;SDS011;45778;51.142;3.732;2023-05-23T13:25:08;7.45;;;1.50;;
59922;SDS011;45778;51.142;3.732;2023-05-23T13:27:33;11.38;;;1.88;;
59922;SDS011;45778;51.142;3.732;2023-05-23T13:29:59;8.88;;;1.90;;
59922;SDS011;45778;51.142;3.732;2023-05-23T13:32:25;12.02;;;1.92;;
59922;SDS011;45778;51.142;3.732;2023-05-23T13:34:51;7.07;;;1.90;;
59922;SDS011;45778;51.142;3.732;2023-05-23T13:37:17;10.52;;;1.77;;
59922;SDS011;45778;51.142;3.732;2023-05-23T13:39:42;7.78;;;1.88;;
59922;SDS011;45778;51.142;3.732;2023-05-23T13:42:08;8.52;;;1.70;;
59922;SDS011;45778;51.142;3.732;2023-05-23T13:44:34;7.10;;;2.00;;
59922;SDS011;45778;51.142;3.732;2023-05-23T13:47:10;9.25;;;1.90;;
59922;SDS011;45778;51.142;3.732;2023-05-23T13:49:37;8.25;;;2.00;;
59922;SDS011;45778;51.142;3.732;2023-05-23T13:52:02;6.85;;;1.88;;
59922;SDS011;45778;51.142;3.732;2023-05-23T13:54:28;11.15;;;2.33;;
59922;SDS011;45778;51.142;3.732;2023-05-23T13:56:54;8.82;;;2.22;;
59922;SDS011;45778;51.142;3.732;2023-05-23T13:59:20;9.63;;;2.20;;
59922;SDS011;45778;51.142;3.732;2023-05-23T14:01:46;5.22;;;1.33;;
59922;SDS011;45778;51.142;3.732;2023-05-23T14:04:12;8.23;;;1.52;;
59922;SDS011;45778;51.142;3.732;2023-05-23T14:06:38;11.18;;;1.90;;
59922;SDS011;45778;51.142;3.732;2023-05-23T14:09:03;7.22;;;1.50;;
59922;SDS011;45778;51.142;3.732;2023-05-23T14:11:30;7.85;;;1.60;;
59922;SDS011;45778;51.142;3.732;2023-05-23T14:13:56;5.45;;;1.98;;
59922;SDS011;45778;51.142;3.732;2023-05-23T14:16:21;12.40;;;1.75;;
59922;SDS011;45778;51.142;3.732;2023-05-23T14:18:47;10.40;;;2.15;;
59922;SDS011;45778;51.142;3.732;2023-05-23T14:21:13;11.93;;;2.30;;
59922;SDS011;45778;51.142;3.732;2023-05-23T14:23:38;10.45;;;2.47;;
59922;SDS011;45778;51.142;3.732;2023-05-23T14:26:04;8.77;;;2.10;;
59922;SDS011;45778;51.142;3.732;2023-05-23T14:28:30;8.02;;;1.95;;
59922;SDS011;45778;51.142;3.732;2023-05-23T14:30:56;7.72;;;1.50;;
59922;SDS011;45778;51.142;3.732;2023-05-23T14:33:23;9.77;;;1.85;;
59922;SDS011;45778;51.142;3.732;2023-05-23T14:35:49;9.18;;;1.85;;
59922;SDS011;45778;51.142;3.732;2023-05-23T14:38:15;6.95;;;1.50;;
59922;SDS011;45778;51.142;3.732;2023-05-23T14:40:41;8.63;;;1.83;;
59922;SDS011;45778;51.142;3.732;2023-05-23T14:43:07;8.63;;;2.10;;
59922;SDS011;45778;51.142;3.732;2023-05-23T14:45:32;10.13;;;2.78;;
59922;SDS011;45778;51.142;3.732;2023-05-23T14:47:58;8.80;;;2.10;;
59922;SDS011;45778;51.142;3.732;2023-05-23T14:50:24;7.70;;;1.70;;
59922;SDS011;45778;51.142;3.732;2023-05-23T14:52:51;10.32;;;1.77;;
59922;SDS011;45778;51.142;3.732;2023-05-23T14:55:16;13.13;;;1.80;;
59922;SDS011;45778;51.142;3.732;2023-05-23T14:57:42;7.07;;;1.50;;